KMTW/MTW METAR and TAF weather

Enter ICAO airport designator
Station Type Date Time Source
KMTW METAR 2019/12/12 08:56 UTC NOAA

KMTW 120856Z AUTO 36003KT 10SM BKN090 OVC110 M11/M14 A3046 RMK AO2 SLP330 T11061144 56011 FZRANO


Station Type Date Time Source
KMTW Decoded METAR 2019/12/12 08:56 UTC NOAA

Manitowoc, Manitowoc County Airport, WI, United States (KMTW) 44-08N 087-41W
Dec 12, 2019 - 03:56 AM EST / 2019.12.12 0856 UTC
Wind: from the N (360 degrees) at 3 MPH (3 KT):0
Visibility: 10 mile(s):0
Sky conditions: overcast
Temperature: 12.9 F (-10.6 C)
Dew Point: 6.1 F (-14.4 C)
Relative Humidity: 73%
Pressure (altimeter): 30.46 in. Hg (1031 hPa)
Pressure tendency: 0.03 inches (1.1 hPa) lower than three hours ago
ob: KMTW 120856Z AUTO 36003KT 10SM BKN090 OVC110 M11/M14 A3046 RMK AO2 SLP330 T11061144 56011 FZRANO
cycle: 9

Station Type Date Time Source
KMTW TAF 2019/12/12 06:22 UTC NOAA

TAF KMTW 120520Z 1206/1306 22002KT P6SM BKN090
FM121200 16006KT P6SM -SN OVC060
FM121400 16011KT P6SM -SN OVC035
FM121500 17013G20KT 5SM -SN BR OVC018
FM121800 19013G20KT 2SM -SN OVC020
FM122000 21011G17KT 1 1/2SM -SN OVC014
FM122300 23006KT 5SM -DZ BR OVC012

Example: see airport list